Time,TemperatureF,DewpointF,PressureIn,WindDirection,WindDirectionDegrees,WindSpeedMPH,WindSpeedGustMPH,Humidity,HourlyPrecipIn,Conditions,Clouds,dailyrainin,SoftwareType,DateUTC
2013-08-20 00:21:00,76.0,53.0,29.96,SE,135,4.0,5.0,45,0.00,,,-99.99,,2013-08-20 07:21:00,
2013-08-20 00:52:00,75.0,53.0,29.96,SE,142,5.0,7.0,47,0.00,,,-99.99,,2013-08-20 07:52:00,
2013-08-20 01:11:00,75.0,53.0,29.96,SSE,148,4.0,6.0,46,0.00,,,-99.99,,2013-08-20 08:11:00,
2013-08-20 01:21:00,75.0,52.0,29.96,South,182,4.0,11.0,45,0.00,,,-99.99,,2013-08-20 08:21:00,
2013-08-20 01:52:00,75.0,52.0,29.95,South,178,3.0,8.0,44,0.00,,,-99.99,,2013-08-20 08:52:00,
2013-08-20 02:11:00,75.0,52.0,29.95,South,179,0.0,7.0,45,0.00,,,-99.99,,2013-08-20 09:11:00,
2013-08-20 02:21:00,75.0,52.0,29.95,South,178,4.0,6.0,45,0.00,,,-99.99,,2013-08-20 09:21:00,
2013-08-20 02:42:00,74.0,51.0,29.95,South,171,3.0,7.0,45,0.00,,,-99.99,,2013-08-20 09:42:00,
2013-08-20 02:53:00,74.0,52.0,29.97,South,171,1.0,6.0,46,0.00,,,-99.99,,2013-08-20 09:53:00,
2013-08-20 03:12:00,74.0,52.0,29.97,South,170,2.0,8.0,47,0.00,,,-99.99,,2013-08-20 10:12:00,
2013-08-20 03:22:00,74.0,52.0,29.96,SSE,165,6.0,9.0,47,0.00,,,-99.99,,2013-08-20 10:22:00,
2013-08-20 03:52:00,73.0,52.0,29.96,South,181,3.0,5.0,48,0.00,,,-99.99,,2013-08-20 10:52:00,
2013-08-20 04:11:00,73.0,53.0,29.96,South,181,3.0,5.0,49,0.00,,,-99.99,,2013-08-20 11:11:00,
2013-08-20 04:21:00,72.0,52.0,29.96,South,181,4.0,7.0,50,0.00,,,-99.99,,2013-08-20 11:21:00,
2013-08-20 04:42:00,72.0,52.0,29.96,South,186,3.0,6.0,49,0.00,,,-99.99,,2013-08-20 11:42:00,
2013-08-20 04:52:00,72.0,51.0,29.94,South,186,6.0,7.0,48,0.00,,,-99.99,,2013-08-20 11:52:00,
2013-08-20 05:12:00,72.0,51.0,29.94,South,186,6.0,7.0,48,0.00,,,-99.99,,2013-08-20 12:12:00,
2013-08-20 05:21:00,72.0,51.0,29.95,SSW,195,6.0,11.0,48,0.00,,,0.00,,2013-08-20 12:21:00,
2013-08-20 05:52:00,72.0,50.0,29.95,SSW,195,4.0,9.0,46,0.00,,,0.00,,2013-08-20 12:52:00,
2013-08-20 06:11:00,72.0,50.0,29.95,SSW,196,5.0,7.0,46,0.00,,,0.00,,2013-08-20 13:11:00,
2013-08-20 06:21:00,72.0,51.0,29.96,SSE,163,5.0,10.0,48,0.00,,,0.00,,2013-08-20 13:21:00,
2013-08-20 06:52:00,71.0,51.0,29.97,South,177,4.0,9.0,49,0.00,,,0.00,,2013-08-20 13:52:00,
2013-08-20 07:11:00,71.0,51.0,29.97,South,180,5.0,7.0,49,0.00,,,0.00,,2013-08-20 14:11:00,
2013-08-20 07:21:00,73.0,52.0,29.98,South,184,1.0,7.0,47,0.00,,,0.00,,2013-08-20 14:21:00,
2013-08-20 07:52:00,76.0,51.0,29.97,SSW,205,3.0,6.0,41,0.00,,,0.00,,2013-08-20 14:52:00,
2013-08-20 08:11:00,78.0,50.0,29.97,West,271,3.0,7.0,38,0.00,,,0.00,,2013-08-20 15:11:00,
2013-08-20 08:22:00,81.0,49.0,29.97,South,191,5.0,10.0,33,0.00,,,0.00,,2013-08-20 15:22:00,
2013-08-20 08:53:00,85.0,47.0,29.99,South,174,1.0,6.0,27,0.00,,,0.00,,2013-08-20 15:53:00,
2013-08-20 09:15:00,87.0,48.0,29.99,South,174,0.0,3.0,26,0.00,,,0.00,,2013-08-20 16:15:00,
2013-08-20 09:30:00,-999.0,-99.9,29.98,South,177,2.0,3.0,24,0.00,,,0.00,,2013-08-20 16:30:00,
2013-08-20 09:52:00,91.0,48.0,29.99,East,84,0.0,2.0,23,0.00,,,0.00,,2013-08-20 16:52:00,
2013-08-20 10:12:00,92.0,48.0,29.99,East,84,0.0,3.0,22,0.00,,,0.00,,2013-08-20 17:12:00,
2013-08-20 10:24:00,93.0,47.0,29.98,ENE,59,2.0,5.0,21,0.00,,,0.00,,2013-08-20 17:24:00,
2013-08-20 10:52:00,94.0,48.0,29.99,ENE,58,0.0,1.0,21,0.00,,,0.00,,2013-08-20 17:52:00,
2013-08-20 11:12:00,95.0,46.0,29.98,ENE,62,3.0,6.0,19,0.00,,,0.00,,2013-08-20 18:12:00,
2013-08-20 11:21:00,96.0,47.0,29.98,ENE,60,3.0,4.0,19,0.00,,,0.00,,2013-08-20 18:21:00,
2013-08-20 11:52:00,97.0,48.0,29.98,East,84,0.0,8.0,19,0.00,,,0.00,,2013-08-20 18:52:00,
2013-08-20 12:11:00,98.0,49.0,29.98,ENE,65,2.0,6.0,19,0.00,,,0.00,,2013-08-20 19:11:00,
2013-08-20 12:21:00,98.0,49.0,29.97,NE,34,3.0,9.0,19,0.00,,,0.00,,2013-08-20 19:21:00,
2013-08-20 12:41:00,99.0,49.0,29.97,East,98,2.0,14.0,19,0.00,,,0.00,,2013-08-20 19:41:00,
2013-08-20 12:52:00,99.0,48.0,29.96,ESE,122,3.0,12.0,18,0.00,,,0.00,,2013-08-20 19:52:00,
2013-08-20 13:11:00,100.0,49.0,29.96,East,91,1.0,11.0,18,0.00,,,0.00,,2013-08-20 20:11:00,
2013-08-20 13:21:00,98.0,49.0,29.96,ESE,105,4.0,10.0,19,0.00,,,0.00,,2013-08-20 20:21:00,
2013-08-20 13:52:00,100.0,44.0,29.95,East,94,6.0,17.0,15,0.00,,,0.00,,2013-08-20 20:52:00,
2013-08-20 14:11:00,102.0,44.0,29.95,East,93,2.0,18.0,14,0.00,,,0.00,,2013-08-20 21:11:00,
2013-08-20 14:22:00,102.0,40.0,29.93,East,88,5.0,19.0,12,0.00,,,0.00,,2013-08-20 21:22:00,
2013-08-20 15:24:00,104.0,34.0,29.91,South,177,6.0,13.0,9,0.00,,,0.00,,2013-08-20 22:24:00,
2013-08-20 15:53:00,105.0,32.0,29.91,SSE,156,9.0,18.0,8,0.00,,,0.00,,2013-08-20 22:53:00,
2013-08-20 16:22:00,103.0,36.0,29.90,South,185,8.0,16.0,10,0.00,,,0.00,,2013-08-20 23:22:00,
2013-08-20 16:53:00,103.0,41.0,29.89,SSE,160,4.0,23.0,12,0.00,,,0.00,,2013-08-20 23:53:00,
2013-08-20 17:12:00,103.0,38.0,29.89,SE,146,11.0,18.0,11,0.00,,,0.00,,2013-08-21 00:12:00,
2013-08-20 17:22:00,103.0,38.0,29.89,SSW,203,14.0,23.0,11,0.00,,,0.00,,2013-08-21 00:22:00,
2013-08-20 17:42:00,102.0,42.0,29.89,SSE,153,13.0,19.0,13,0.00,,,0.00,,2013-08-21 00:42:00,
2013-08-20 17:52:00,102.0,35.0,29.88,South,169,11.0,21.0,10,0.00,,,0.00,,2013-08-21 00:52:00,
2013-08-20 18:11:00,102.0,32.0,29.88,South,176,14.0,23.0,9,0.00,,,0.00,,2013-08-21 01:11:00,
2013-08-20 18:21:00,101.0,32.0,29.88,SE,146,17.0,27.0,9,0.00,,,0.00,,2013-08-21 01:21:00,
2013-08-20 18:52:00,99.0,27.0,29.86,South,184,21.0,29.0,8,0.00,,,0.00,,2013-08-21 01:52:00,
2013-08-20 19:12:00,98.0,32.0,29.86,South,185,18.0,27.0,10,0.00,,,0.00,,2013-08-21 02:12:00,
2013-08-20 19:22:00,97.0,29.0,29.87,South,180,14.0,25.0,9,0.00,,,0.00,,2013-08-21 02:22:00,
2013-08-20 19:42:00,96.0,28.0,29.87,South,184,17.0,24.0,9,0.00,,,0.00,,2013-08-21 02:42:00,
2013-08-20 19:52:00,95.0,27.0,29.88,South,181,13.0,22.0,9,0.00,,,0.00,,2013-08-21 02:52:00,
2013-08-20 20:12:00,94.0,29.0,29.88,South,189,13.0,21.0,10,0.00,,,0.00,,2013-08-21 03:12:00,
2013-08-20 20:22:00,93.0,28.0,29.90,South,180,11.0,17.0,10,0.00,,,0.00,,2013-08-21 03:22:00,
2013-08-20 20:55:00,91.0,31.0,29.91,SSE,165,5.0,9.0,12,0.00,,,0.00,,2013-08-21 03:55:00,
2013-08-20 21:13:00,90.0,31.0,29.91,SSW,201,6.0,9.0,12,0.00,,,0.00,,2013-08-21 04:13:00,
2013-08-20 21:23:00,89.0,35.0,29.91,SSW,192,5.0,13.0,15,0.00,,,0.00,,2013-08-21 04:23:00,
2013-08-20 21:54:00,87.0,35.0,29.93,South,180,4.0,10.0,16,0.00,,,0.00,,2013-08-21 04:54:00,
2013-08-20 22:12:00,87.0,37.0,29.93,South,180,2.0,6.0,17,0.00,,,0.00,,2013-08-21 05:12:00,
2013-08-20 22:22:00,86.0,36.0,29.93,SSE,160,4.0,6.0,17,0.00,,,0.00,,2013-08-21 05:22:00,
2013-08-20 22:52:00,84.0,36.0,29.93,SE,140,5.0,7.0,18,0.00,,,0.00,,2013-08-21 05:52:00,
2013-08-20 23:12:00,84.0,36.0,29.93,SE,141,4.0,10.0,18,0.00,,,0.00,,2013-08-21 06:12:00,
2013-08-20 23:22:00,84.0,37.0,29.93,SE,143,3.0,10.0,19,0.00,,,0.00,,2013-08-21 06:22:00,
2013-08-20 23:42:00,83.0,38.0,29.93,SE,143,3.0,7.0,20,0.00,,,0.00,,2013-08-21 06:42:00,
2013-08-20 23:52:00,83.0,38.0,29.94,SE,143,0.0,6.0,20,0.00,,,0.00,,2013-08-21 06:52:00,